Time;durP1;ratioP1;P1;durP2;ratioP2;P2;SDS_P1;SDS_P2;PMS_P1;PMS_P2;Temp;Humidity;BMP_temperature;BMP_pressure;BME280_temperature;BME280_humidity;BME280_pressure;Samples;Min_cycle;Max_cycle;Signal;HPM_P1;HPM_P2
2023/07/31 00:01:29;;;;;;;11.23;3.47;;;;;;;12.09;100.00;100485.66;4892768;29;20154;-65
2023/07/31 00:03:57;;;;;;;12.77;4.35;;;;;;;12.04;100.00;100478.16;4893073;29;20100;-64
2023/07/31 00:06:23;;;;;;;15.75;5.22;;;;;;;12.05;100.00;100484.34;4893004;29;20056;-64
2023/07/31 00:08:50;;;;;;;10.55;3.28;;;;;;;11.99;100.00;100485.03;4893003;29;20101;-64
2023/07/31 00:11:16;;;;;;;6.95;2.60;;;;;;;11.99;100.00;100469.75;4893911;29;20112;-63
2023/07/31 00:13:44;;;;;;;12.90;4.20;;;;;;;11.97;100.00;100469.09;4896406;29;20056;-63
2023/07/31 00:16:10;;;;;;;10.02;3.47;;;;;;;11.97;100.00;100471.78;4879854;29;20099;-64
2023/07/31 00:18:37;;;;;;;8.55;3.28;;;;;;;11.91;100.00;100467.09;4897010;29;20491;-64
2023/07/31 00:21:03;;;;;;;13.60;3.70;;;;;;;11.93;100.00;100470.44;4896741;29;20079;-64
2023/07/31 00:23:30;;;;;;;5.80;2.70;;;;;;;11.84;100.00;100466.97;4896287;29;20091;-65
2023/07/31 00:25:56;;;;;;;9.43;3.03;;;;;;;11.90;100.00;100455.53;4896320;29;20569;-65
2023/07/31 00:28:23;;;;;;;11.85;3.15;;;;;;;11.92;100.00;100450.78;4896038;29;20056;-64
2023/07/31 00:30:49;;;;;;;10.18;2.70;;;;;;;11.82;100.00;100439.41;4896284;29;20052;-65
2023/07/31 00:33:16;;;;;;;6.45;2.78;;;;;;;11.81;100.00;100436.91;4896152;29;20056;-63
2023/07/31 00:35:42;;;;;;;13.45;3.33;;;;;;;11.77;100.00;100424.84;4896163;29;20044;-63
2023/07/31 00:38:09;;;;;;;10.95;3.08;;;;;;;11.74;100.00;100431.41;4906898;29;20056;-64
2023/07/31 00:40:39;;;;;;;12.15;3.33;;;;;;;11.59;100.00;100427.75;4915498;29;20060;-65
2023/07/31 00:43:06;;;;;;;7.70;2.95;;;;;;;11.51;100.00;100425.09;4915167;29;20072;-64
2023/07/31 00:45:32;;;;;;;15.68;3.15;;;;;;;11.50;100.00;100429.63;4914794;29;20671;-64
2023/07/31 00:47:59;;;;;;;10.48;3.08;;;;;;;11.56;100.00;100425.41;4914794;29;20063;-64
2023/07/31 00:50:26;;;;;;;10.40;3.97;;;;;;;11.62;100.00;100432.75;4914727;29;20048;-64
2023/07/31 00:52:53;;;;;;;9.60;4.22;;;;;;;11.70;100.00;100438.16;4914910;29;20052;-64
2023/07/31 00:55:21;;;;;;;9.98;4.18;;;;;;;11.71;100.00;100423.69;4914688;29;20052;-64
2023/07/31 00:57:49;;;;;;;8.57;4.05;;;;;;;11.75;100.00;100425.00;4914489;29;20100;-64
2023/07/31 01:00:15;;;;;;;12.63;4.55;;;;;;;11.82;100.00;100425.97;4914208;29;20052;-64
2023/07/31 01:02:42;;;;;;;8.82;3.60;;;;;;;11.85;100.00;100424.81;4914404;29;20135;-64
2023/07/31 01:09:21;;;;;;;8.25;3.78;;;;;;;11.89;100.00;100413.50;4912927;29;20047;-64
2023/07/31 01:11:53;;;;;;;12.23;3.95;;;;;;;11.87;100.00;100412.03;4914191;29;20055;-64
2023/07/31 01:14:19;;;;;;;8.95;3.10;;;;;;;11.78;100.00;100408.53;4914097;29;20456;-64
2023/07/31 01:16:47;;;;;;;12.02;4.18;;;;;;;11.76;100.00;100409.72;4913340;29;20052;-64
2023/07/31 01:19:17;;;;;;;10.32;4.07;;;;;;;11.83;100.00;100406.16;4913570;29;20135;-63
2023/07/31 01:22:08;;;;;;;10.33;2.73;;;;;;;11.89;100.00;100396.53;4913324;29;20083;-64
2023/07/31 01:25:18;;;;;;;11.75;4.35;;;;;;;11.91;100.00;100403.44;4913213;29;20048;-63
2023/07/31 01:28:04;;;;;;;12.13;4.00;;;;;;;11.82;100.00;100404.47;4913176;29;20484;-64
2023/07/31 01:30:41;;;;;;;10.93;3.90;;;;;;;11.79;100.00;100404.00;4913081;29;20472;-61
2023/07/31 01:33:09;;;;;;;6.80;3.75;;;;;;;11.73;100.00;100405.56;4913037;29;20071;-63
2023/07/31 01:35:39;;;;;;;8.80;4.68;;;;;;;11.77;100.00;100406.88;4912960;29;20445;-63
2023/07/31 01:38:06;;;;;;;10.90;4.70;;;;;;;11.83;100.00;100392.72;4902686;29;20053;-62
2023/07/31 01:40:33;;;;;;;10.85;5.30;;;;;;;11.91;100.00;100398.06;4893909;29;20053;-63
2023/07/31 01:43:00;;;;;;;14.25;5.80;;;;;;;11.99;100.00;100396.31;4894051;29;20394;-62
2023/07/31 01:45:27;;;;;;;12.45;5.53;;;;;;;11.99;100.00;100396.31;4894350;29;20055;-64
2023/07/31 01:47:53;;;;;;;10.63;5.07;;;;;;;12.02;100.00;100387.91;4894720;29;20045;-63
2023/07/31 01:50:20;;;;;;;8.90;3.80;;;;;;;11.97;100.00;100380.38;4894394;29;20048;-64
2023/07/31 01:52:46;;;;;;;12.60;4.32;;;;;;;12.01;100.00;100376.31;4894063;29;20060;-64
2023/07/31 01:55:13;;;;;;;7.65;3.47;;;;;;;12.04;100.00;100369.75;4894189;29;20426;-63
2023/07/31 01:57:39;;;;;;;10.93;4.00;;;;;;;11.97;100.00;100384.91;4894385;29;20052;-64
2023/07/31 02:00:07;;;;;;;9.57;3.25;;;;;;;11.97;100.00;100384.91;4893813;29;20056;-64
2023/07/31 02:02:33;;;;;;;14.10;3.60;;;;;;;11.93;100.00;100376.34;4893716;29;20109;-64
2023/07/31 02:05:00;;;;;;;9.43;3.63;;;;;;;11.87;100.00;100377.91;4893942;29;20056;-63
2023/07/31 02:07:26;;;;;;;15.63;4.53;;;;;;;11.80;100.00;100374.28;4893921;29;20104;-63
2023/07/31 02:09:53;;;;;;;9.98;3.65;;;;;;;11.79;100.00;100377.94;4894349;29;20052;-63
2023/07/31 02:12:20;;;;;;;8.98;3.30;;;;;;;11.76;100.00;100378.34;4893686;29;20073;-64
2023/07/31 02:14:46;;;;;;;10.13;3.67;;;;;;;11.73;100.00;100373.31;4893814;29;20076;-63
2023/07/31 02:17:13;;;;;;;9.18;3.75;;;;;;;11.59;100.00;100376.72;4893796;29;20052;-62
2023/07/31 02:19:40;;;;;;;12.55;3.67;;;;;;;11.65;100.00;100370.59;4893243;29;20327;-63
2023/07/31 02:22:06;;;;;;;10.98;3.97;;;;;;;11.72;100.00;100365.41;4892979;29;20493;-63
2023/07/31 02:24:33;;;;;;;17.67;4.38;;;;;;;11.70;100.00;100362.91;4893060;29;20369;-63
2023/07/31 02:27:00;;;;;;;7.35;3.65;;;;;;;11.71;100.00;100369.13;4893801;29;20060;-62
2023/07/31 02:29:27;;;;;;;8.40;3.58;;;;;;;11.60;100.00;100364.94;4892890;29;20052;-62
2023/07/31 02:31:53;;;;;;;7.63;3.47;;;;;;;11.62;100.00;100366.44;4893891;29;20104;-63
2023/07/31 02:34:20;;;;;;;10.27;4.05;;;;;;;11.66;100.00;100366.97;4892214;29;20045;-64
2023/07/31 02:36:48;;;;;;;8.90;3.75;;;;;;;11.62;100.00;100355.69;4893391;29;20128;-63
2023/07/31 02:39:14;;;;;;;15.10;3.60;;;;;;;11.65;100.00;100357.16;4911888;29;20111;-62
2023/07/31 02:41:41;;;;;;;14.02;4.40;;;;;;;11.62;100.00;100347.63;4911992;29;20489;-62
2023/07/31 02:44:07;;;;;;;12.25;4.50;;;;;;;11.66;100.00;100348.97;4912289;29;20413;-63
2023/07/31 02:46:34;;;;;;;8.38;3.70;;;;;;;11.68;100.00;100346.09;4912268;29;20079;-62
2023/07/31 02:49:00;;;;;;;9.30;3.80;;;;;;;11.65;100.00;100347.25;4901326;29;20063;-62
2023/07/31 02:51:27;;;;;;;10.27;4.25;;;;;;;11.68;100.00;100344.25;4911691;29;20056;-62
2023/07/31 02:53:53;;;;;;;12.40;4.20;;;;;;;11.68;100.00;100346.94;4912936;29;20131;-62
2023/07/31 02:56:20;;;;;;;11.50;5.15;;;;;;;11.66;100.00;100351.66;4912102;29;20100;-63
2023/07/31 02:58:47;;;;;;;10.25;4.25;;;;;;;11.60;100.00;100348.81;4895561;29;20059;-63
2023/07/31 03:01:14;;;;;;;10.65;4.57;;;;;;;11.63;100.00;100351.16;4911550;29;20084;-62
2023/07/31 03:03:41;;;;;;;14.80;4.47;;;;;;;11.58;100.00;100343.59;4912336;29;20455;-63
2023/07/31 03:06:08;;;;;;;11.00;4.78;;;;;;;11.60;100.00;100346.13;4911968;29;20052;-63
2023/07/31 03:08:35;;;;;;;11.25;4.95;;;;;;;11.60;100.00;100343.44;4911808;29;20099;-63
2023/07/31 03:11:02;;;;;;;20.08;5.50;;;;;;;11.59;100.00;100347.16;4911971;29;20047;-62
2023/07/31 03:13:28;;;;;;;10.40;4.60;;;;;;;11.61;100.00;100340.56;4911651;29;20516;-61
2023/07/31 03:15:55;;;;;;;8.63;4.40;;;;;;;11.66;100.00;100346.28;4912432;29;20076;-61
2023/07/31 03:18:22;;;;;;;14.65;5.20;;;;;;;11.67;100.00;100333.69;4912015;29;20560;-62
2023/07/31 03:20:48;;;;;;;11.52;4.35;;;;;;;11.63;100.00;100330.50;4911400;29;20072;-63
2023/07/31 03:23:15;;;;;;;20.75;5.43;;;;;;;11.63;100.00;100327.81;4911086;29;20099;-62
2023/07/31 03:25:56;;;;;;;15.50;5.00;;;;;;;11.61;100.00;100329.81;4911562;29;20491;-63
2023/07/31 03:28:22;;;;;;;14.55;4.00;;;;;;;11.60;100.00;100319.25;4911306;29;20135;-62
2023/07/31 03:30:49;;;;;;;9.88;4.72;;;;;;;11.62;100.00;100327.97;4911352;29;20425;-63
2023/07/31 03:33:15;;;;;;;17.08;5.20;;;;;;;11.64;100.00;100318.72;4910933;29;20087;-62
2023/07/31 03:35:43;;;;;;;13.30;5.15;;;;;;;11.62;100.00;100319.91;4911021;29;20138;-64
2023/07/31 03:38:09;;;;;;;13.63;5.25;;;;;;;11.57;100.00;100316.94;4900512;29;20060;-63
2023/07/31 03:40:38;;;;;;;10.77;5.32;;;;;;;11.61;100.00;100316.38;4893076;29;20057;-63
2023/07/31 03:43:05;;;;;;;11.98;5.00;;;;;;;11.63;100.00;100313.53;4892515;29;20052;-62
2023/07/31 03:45:32;;;;;;;13.80;5.28;;;;;;;11.63;100.00;100313.53;4893549;29;20045;-63
2023/07/31 03:47:58;;;;;;;12.65;5.05;;;;;;;11.71;100.00;100315.38;4896424;29;20123;-63
2023/07/31 03:50:25;;;;;;;13.95;5.00;;;;;;;11.74;100.00;100309.63;4897192;29;20115;-62
2023/07/31 03:52:52;;;;;;;14.10;5.32;;;;;;;11.75;100.00;100316.69;4896600;29;20048;-62
2023/07/31 03:55:19;;;;;;;9.02;5.05;;;;;;;11.76;100.00;100312.97;4895564;29;20458;-63
2023/07/31 03:57:45;;;;;;;11.68;5.40;;;;;;;11.75;100.00;100312.13;4896391;29;20064;-63
2023/07/31 04:00:12;;;;;;;11.15;5.75;;;;;;;11.72;100.00;100301.75;4895564;29;20048;-63
2023/07/31 04:02:38;;;;;;;11.82;4.70;;;;;;;11.73;100.00;100306.13;4896655;29;20152;-64
2023/07/31 04:05:05;;;;;;;17.48;4.90;;;;;;;11.70;100.00;100303.78;4896153;29;20052;-63
2023/07/31 04:07:32;;;;;;;13.40;5.25;;;;;;;11.74;100.00;100310.47;4896045;29;20056;-63
2023/07/31 04:10:00;;;;;;;9.60;4.75;;;;;;;11.80;100.00;100309.75;4895779;29;20053;-63
2023/07/31 04:12:26;;;;;;;16.95;5.07;;;;;;;11.82;100.00;100314.94;4895158;29;20112;-64
2023/07/31 04:14:53;;;;;;;10.45;4.28;;;;;;;11.88;100.00;100307.00;4896502;29;20064;-64
2023/07/31 04:17:20;;;;;;;15.35;5.32;;;;;;;11.89;100.00;100300.63;4895344;29;20045;-62
2023/07/31 04:19:46;;;;;;;9.18;4.40;;;;;;;11.89;100.00;100303.31;4895378;29;20509;-63
2023/07/31 04:22:13;;;;;;;8.07;4.40;;;;;;;11.83;100.00;100301.34;4895459;29;20053;-64
2023/07/31 04:24:39;;;;;;;10.70;4.30;;;;;;;11.84;100.00;100294.94;4895933;29;20076;-64
2023/07/31 04:27:06;;;;;;;12.98;4.25;;;;;;;11.84;100.00;100300.31;4895675;29;20534;-63
2023/07/31 04:29:32;;;;;;;12.40;4.50;;;;;;;11.83;100.00;100289.75;4894854;29;20040;-63
2023/07/31 04:31:59;;;;;;;15.55;4.88;;;;;;;11.82;100.00;100282.69;4895835;29;20056;-63
2023/07/31 04:34:25;;;;;;;10.35;4.13;;;;;;;11.80;100.00;100288.25;4895804;29;20044;-61
2023/07/31 04:36:53;;;;;;;12.55;4.18;;;;;;;11.85;100.00;100285.88;4897406;29;20076;-62
2023/07/31 04:39:19;;;;;;;15.63;4.05;;;;;;;11.85;100.00;100285.88;4914601;29;20048;-64
2023/07/31 04:41:46;;;;;;;9.68;4.00;;;;;;;11.89;100.00;100289.84;4914558;29;20079;-64
2023/07/31 04:44:14;;;;;;;11.85;4.10;;;;;;;11.80;100.00;100288.25;4914579;29;20059;-62
2023/07/31 04:46:40;;;;;;;11.32;4.63;;;;;;;11.83;100.00;100281.66;4914402;29;20052;-63
2023/07/31 04:49:07;;;;;;;11.93;4.65;;;;;;;11.79;100.00;100278.50;4914084;29;20055;-63
2023/07/31 04:51:34;;;;;;;15.48;4.55;;;;;;;11.84;100.00;100276.13;4913883;29;20533;-63
2023/07/31 04:54:00;;;;;;;7.28;4.10;;;;;;;11.90;100.00;100277.28;4913116;29;20479;-63
2023/07/31 04:56:27;;;;;;;13.65;4.70;;;;;;;11.92;100.00;100281.44;4913578;29;20071;-63
2023/07/31 04:58:53;;;;;;;12.70;4.30;;;;;;;11.96;100.00;100276.53;4914395;29;20072;-63
2023/07/31 05:01:20;;;;;;;11.73;4.63;;;;;;;11.91;100.00;100287.84;4914182;29;20427;-62
2023/07/31 05:03:47;;;;;;;15.13;4.45;;;;;;;11.93;100.00;100277.75;4914209;29;20103;-63
2023/07/31 05:06:15;;;;;;;16.23;5.05;;;;;;;12.00;100.00;100279.69;4898244;29;20088;-64
2023/07/31 05:08:42;;;;;;;13.32;4.70;;;;;;;12.08;100.00;100279.66;4895962;29;20515;-63
2023/07/31 05:11:09;;;;;;;15.05;5.30;;;;;;;12.13;100.00;100271.88;4895483;29;20053;-64
2023/07/31 05:13:35;;;;;;;14.23;4.43;;;;;;;12.13;100.00;100286.16;4895617;29;20056;-64
2023/07/31 05:16:03;;;;;;;13.70;5.10;;;;;;;12.19;100.00;100281.91;4894928;29;20053;-63
2023/07/31 05:18:29;;;;;;;17.67;4.88;;;;;;;12.13;100.00;100283.44;4894952;29;20052;-62
2023/07/31 05:20:56;;;;;;;12.43;4.63;;;;;;;12.21;100.00;100279.88;4894988;29;20045;-62
2023/07/31 05:23:22;;;;;;;14.10;4.43;;;;;;;12.22;100.00;100276.16;4895016;29;20545;-63
2023/07/31 05:25:49;;;;;;;12.13;4.20;;;;;;;12.23;100.00;100269.75;4893949;29;20056;-63
2023/07/31 05:28:15;;;;;;;10.40;4.32;;;;;;;12.24;100.00;100273.28;4894516;29;20432;-62
2023/07/31 05:30:42;;;;;;;7.82;4.55;;;;;;;12.19;100.00;100268.47;4894406;29;20067;-63
2023/07/31 05:33:09;;;;;;;10.20;3.80;;;;;;;12.22;100.00;100276.16;4894521;29;20131;-62
2023/07/31 05:35:39;;;;;;;7.70;3.35;;;;;;;12.25;100.00;100272.28;4894813;29;20386;-64
2023/07/31 05:38:06;;;;;;;11.50;3.20;;;;;;;12.22;100.00;100275.34;4904969;29;20531;-63
2023/07/31 05:40:33;;;;;;;8.25;3.70;;;;;;;12.29;100.00;100270.91;4913278;29;20067;-64
2023/07/31 05:42:59;;;;;;;10.82;3.58;;;;;;;12.32;100.00;100268.69;4913463;29;20064;-63
2023/07/31 05:45:26;;;;;;;9.07;3.67;;;;;;;12.35;100.00;100268.31;4913325;29;20055;-61
2023/07/31 05:47:53;;;;;;;8.77;3.22;;;;;;;12.40;100.00;100263.22;4913551;29;20128;-62
2023/07/31 05:50:20;;;;;;;12.52;3.13;;;;;;;12.41;100.00;100267.56;4913248;29;20052;-63
2023/07/31 05:52:46;;;;;;;11.02;3.72;;;;;;;12.36;100.00;100263.75;4912460;29;20060;-63
2023/07/31 05:55:13;;;;;;;14.55;3.97;;;;;;;12.30;100.00;100265.31;4913244;29;20052;-62
2023/07/31 05:57:39;;;;;;;13.10;3.30;;;;;;;12.35;100.00;100259.41;4913079;29;20056;-62
2023/07/31 06:00:07;;;;;;;13.23;4.55;;;;;;;12.40;100.00;100265.91;4902991;29;20052;-63
2023/07/31 06:02:36;;;;;;;14.90;3.80;;;;;;;12.45;100.00;100264.50;4893070;29;20048;-63
2023/07/31 06:05:05;;;;;;;11.18;3.47;;;;;;;12.53;100.00;100265.28;4893281;29;20087;-62
2023/07/31 06:07:32;;;;;;;11.65;3.75;;;;;;;12.51;100.00;100263.78;4893815;29;20053;-63
2023/07/31 06:10:04;;;;;;;10.80;4.10;;;;;;;12.43;100.00;100261.19;4892822;29;20057;-63
2023/07/31 06:12:32;;;;;;;11.07;3.40;;;;;;;12.52;100.00;100254.69;4894177;29;20050;-63
2023/07/31 06:14:59;;;;;;;9.55;4.07;;;;;;;12.61;100.00;100258.97;4893640;29;20537;-62
2023/07/31 06:17:26;;;;;;;12.48;3.33;;;;;;;12.61;100.00;100253.56;4892764;29;20049;-60
2023/07/31 06:19:52;;;;;;;10.25;3.85;;;;;;;12.62;100.00;100255.25;4893367;29;20051;-62
2023/07/31 06:22:19;;;;;;;15.00;3.85;;;;;;;12.62;100.00;100257.94;4893659;29;20057;-63
2023/07/31 06:24:46;;;;;;;9.30;3.75;;;;;;;12.59;100.00;100261.00;4893982;29;20505;-64
2023/07/31 06:27:13;;;;;;;9.13;3.35;;;;;;;12.58;100.00;100259.31;4893268;29;20057;-62
2023/07/31 06:29:40;;;;;;;15.00;3.47;;;;;;;12.61;100.00;100256.28;4893083;29;20104;-62
2023/07/31 06:32:07;;;;;;;9.98;3.42;;;;;;;12.71;100.00;100256.84;4893590;29;20107;-64
2023/07/31 06:34:33;;;;;;;11.23;3.83;;;;;;;12.73;100.00;100254.81;4893747;29;20227;-63
2023/07/31 06:37:00;;;;;;;9.50;3.50;;;;;;;12.77;100.00;100258.81;4895476;29;20543;-63
2023/07/31 06:39:26;;;;;;;12.88;3.60;;;;;;;12.84;100.00;100248.97;4896172;29;20071;-62
2023/07/31 06:41:53;;;;;;;7.78;3.45;;;;;;;12.86;100.00;100257.69;4894253;29;20048;-62
2023/07/31 06:44:19;;;;;;;7.18;3.40;;;;;;;12.93;100.00;100255.06;4893819;29;20561;-68
2023/07/31 06:46:46;;;;;;;8.77;3.33;;;;;;;12.99;100.00;100250.81;4893535;29;20061;-68
2023/07/31 06:49:14;;;;;;;11.00;3.95;;;;;;;13.04;100.00;100254.63;4893597;29;20531;-66
2023/07/31 06:51:43;;;;;;;11.02;3.28;;;;;;;12.96;100.00;100256.56;4877604;29;20119;-68
2023/07/31 06:54:10;;;;;;;14.82;3.55;;;;;;;13.02;100.00;100255.81;4893589;29;20425;-67
2023/07/31 06:56:36;;;;;;;9.70;3.45;;;;;;;12.99;100.00;100256.19;4893881;29;20484;-67
2023/07/31 06:59:06;;;;;;;9.35;3.13;;;;;;;13.01;100.00;100251.47;4893658;29;20074;-66
2023/07/31 07:01:33;;;;;;;8.90;3.17;;;;;;;12.92;100.00;100255.28;4893125;29;20052;-67
2023/07/31 07:03:59;;;;;;;13.38;3.90;;;;;;;12.97;100.00;100252.84;4893494;29;20079;-66
2023/07/31 07:06:26;;;;;;;10.15;3.30;;;;;;;13.03;100.00;100252.09;4877093;29;20075;-67
2023/07/31 07:08:53;;;;;;;11.93;3.22;;;;;;;13.04;100.00;100262.72;4894096;29;20053;-65
2023/07/31 07:11:19;;;;;;;11.88;3.90;;;;;;;13.09;100.00;100256.75;4892865;29;20045;-66
2023/07/31 07:13:46;;;;;;;11.00;3.05;;;;;;;12.95;100.00;100261.13;4893586;29;20083;-68
2023/07/31 07:16:13;;;;;;;11.23;3.53;;;;;;;13.02;100.00;100261.22;4893575;29;20492;-67
2023/07/31 07:18:40;;;;;;;9.38;3.13;;;;;;;13.06;100.00;100262.50;4892869;29;20167;-67
2023/07/31 07:21:19;;;;;;;10.52;3.63;;;;;;;13.10;100.00;100264.63;4892290;29;20119;-67
2023/07/31 07:23:46;;;;;;;11.43;4.03;;;;;;;13.12;100.00;100261.75;4893345;29;20156;-66
2023/07/31 07:26:12;;;;;;;7.85;3.13;;;;;;;13.05;100.00;100267.06;4892863;29;20124;-66
2023/07/31 07:28:39;;;;;;;13.90;4.18;;;;;;;13.08;100.00;100261.31;4892541;29;20413;-67
2023/07/31 07:31:06;;;;;;;10.73;4.03;;;;;;;13.13;100.00;100263.41;4892048;29;20437;-67
2023/07/31 07:33:32;;;;;;;9.20;3.20;;;;;;;13.18;100.00;100258.31;4892901;29;20404;-67
2023/07/31 07:36:02;;;;;;;11.80;3.08;;;;;;;13.30;100.00;100255.97;4892776;29;20056;-67
2023/07/31 07:38:29;;;;;;;9.48;3.38;;;;;;;13.26;100.00;100249.28;4906476;29;20059;-67
2023/07/31 07:40:56;;;;;;;6.07;2.60;;;;;;;13.31;100.00;100254.94;4913001;29;20108;-68
2023/07/31 07:43:22;;;;;;;6.28;2.88;;;;;;;13.32;100.00;100262.00;4911642;29;20420;-68
2023/07/31 07:45:49;;;;;;;12.43;3.80;;;;;;;13.38;100.00;100257.69;4904174;29;20055;-67
2023/07/31 07:48:17;;;;;;;10.77;3.28;;;;;;;13.36;100.00;100249.81;4893608;29;20120;-67
2023/07/31 07:50:46;;;;;;;9.00;3.20;;;;;;;13.39;100.00;100248.59;4883976;29;20051;-68
2023/07/31 07:53:14;;;;;;;6.63;2.80;;;;;;;13.38;100.00;100246.94;4880699;29;20143;-68
2023/07/31 07:55:43;;;;;;;8.05;3.03;;;;;;;13.30;100.00;100237.94;4893749;29;20052;-69
2023/07/31 07:58:12;;;;;;;7.57;3.00;;;;;;;13.30;100.00;100242.50;4892315;29;20052;-68
2023/07/31 08:00:39;;;;;;;7.63;3.00;;;;;;;13.37;100.00;100242.56;4910238;29;20105;-67
2023/07/31 08:03:06;;;;;;;7.78;2.83;;;;;;;13.43;100.00;100237.25;4891236;29;20056;-67
2023/07/31 08:05:34;;;;;;;6.35;2.58;;;;;;;13.30;100.00;100242.50;4891855;29;20060;-64
2023/07/31 08:08:01;;;;;;;7.85;3.00;;;;;;;13.43;100.00;100244.50;4890479;29;20076;-68
2023/07/31 08:10:27;;;;;;;8.70;2.72;;;;;;;13.27;100.00;100242.88;4893295;29;20059;-67
2023/07/31 08:12:54;;;;;;;6.82;2.50;;;;;;;13.20;100.00;100229.31;4894274;29;20130;-68
2023/07/31 08:15:20;;;;;;;3.90;2.50;;;;;;;13.22;100.00;100229.97;4892336;29;20048;-68
2023/07/31 08:17:47;;;;;;;7.28;2.38;;;;;;;13.40;100.00;100229.56;4893006;29;20509;-66
2023/07/31 08:20:14;;;;;;;5.60;2.42;;;;;;;13.40;100.00;100223.34;4891698;29;20072;-68
2023/07/31 08:22:41;;;;;;;5.32;2.50;;;;;;;13.44;100.00;100222.75;4892183;29;20052;-67
2023/07/31 08:25:08;;;;;;;4.45;2.33;;;;;;;13.40;100.00;100215.25;4893158;29;20060;-68
2023/07/31 08:27:34;;;;;;;5.50;2.83;;;;;;;13.56;100.00;100214.97;4893829;29;20416;-66
2023/07/31 08:30:01;;;;;;;4.85;2.70;;;;;;;13.65;100.00;100219.22;4893300;29;20108;-66
2023/07/31 08:32:27;;;;;;;7.93;3.00;;;;;;;13.78;100.00;100215.88;4894809;29;20075;-68
2023/07/31 08:34:54;;;;;;;7.25;2.47;;;;;;;13.89;100.00;100225.28;4897224;29;20053;-66
2023/07/31 08:37:21;;;;;;;6.90;2.58;;;;;;;13.83;100.00;100222.31;4899995;29;20083;-67
2023/07/31 08:39:47;;;;;;;5.40;2.75;;;;;;;13.81;100.00;100220.88;4915614;29;20503;-67
2023/07/31 08:42:14;;;;;;;4.30;2.80;;;;;;;13.96;100.00;100226.19;4915529;29;20100;-67
2023/07/31 08:44:41;;;;;;;6.80;2.72;;;;;;;13.93;100.00;100227.38;4914917;29;20151;-68
2023/07/31 08:47:09;;;;;;;6.07;2.60;;;;;;;13.87;100.00;100225.47;4914813;29;20080;-66
2023/07/31 08:49:38;;;;;;;6.75;2.90;;;;;;;13.99;100.00;100229.31;4914553;29;20365;-67
2023/07/31 08:52:05;;;;;;;8.50;2.90;;;;;;;13.96;100.00;100228.88;4914998;29;20564;-67
2023/07/31 08:54:33;;;;;;;9.10;4.10;;;;;;;13.94;100.00;100229.09;4914417;29;20044;-67
2023/07/31 08:57:00;;;;;;;7.15;2.60;;;;;;;13.91;100.00;100218.69;4914878;29;20060;-67
2023/07/31 08:59:31;;;;;;;6.68;2.50;;;;;;;13.92;100.00;100230.28;4914770;29;20044;-67
2023/07/31 09:02:04;;;;;;;4.90;2.40;;;;;;;14.02;100.00;100220.84;4914633;29;20473;-67
2023/07/31 09:04:32;;;;;;;5.78;2.42;;;;;;;14.19;100.00;100226.78;4914736;29;20647;-69
2023/07/31 09:07:04;;;;;;;5.78;2.58;;;;;;;14.30;100.00;100223.53;4914637;29;20076;-69
2023/07/31 09:09:32;;;;;;;6.38;2.20;;;;;;;14.44;100.00;100229.03;4914356;29;20059;-67
2023/07/31 09:11:59;;;;;;;5.63;2.15;;;;;;;14.45;100.00;100233.38;4914240;29;20062;-67
2023/07/31 09:14:26;;;;;;;4.35;1.80;;;;;;;14.43;100.00;100232.78;4914999;29;20107;-67
2023/07/31 09:16:54;;;;;;;3.33;1.70;;;;;;;14.54;100.00;100227.66;4915152;29;20052;-67
2023/07/31 09:19:29;;;;;;;3.50;1.65;;;;;;;14.42;100.00;100223.81;4899629;29;20044;-68
2023/07/31 09:21:56;;;;;;;4.18;1.60;;;;;;;14.37;100.00;100230.84;4896521;29;20100;-68
2023/07/31 09:24:27;;;;;;;4.38;1.85;;;;;;;14.30;100.00;100230.81;4895997;29;20373;-67
2023/07/31 09:26:58;;;;;;;3.83;1.50;;;;;;;14.20;100.00;100228.44;4895867;29;20052;-69
2023/07/31 09:29:27;;;;;;;4.32;1.85;;;;;;;14.20;100.00;100222.22;4876276;29;20047;-69
2023/07/31 09:31:54;;;;;;;1.67;1.30;;;;;;;14.23;100.00;100228.06;4876864;29;20073;-68
2023/07/31 09:34:40;;;;;;;2.42;1.48;;;;;;;14.14;100.00;100223.81;4876947;29;20053;-69
2023/07/31 09:37:07;;;;;;;5.35;1.55;;;;;;;14.01;100.00;100223.72;4882363;29;20127;-68
2023/07/31 09:39:45;;;;;;;3.75;1.40;;;;;;;13.96;100.00;100234.28;4913588;29;20051;-67
2023/07/31 09:42:12;;;;;;;2.45;1.27;;;;;;;13.92;100.00;100222.22;4882054;29;20053;-68
2023/07/31 09:44:40;;;;;;;3.67;1.48;;;;;;;14.07;100.00;100222.94;4894742;29;20108;-68
2023/07/31 09:47:23;;;;;;;1.83;1.33;;;;;;;13.97;100.00;100230.53;4894727;29;20056;-69
2023/07/31 09:49:51;;;;;;;1.45;1.17;;;;;;;13.90;100.00;100221.56;4894535;29;20136;-68
2023/07/31 09:52:17;;;;;;;4.65;1.33;;;;;;;13.96;100.00;100227.00;4894280;29;20072;-68
2023/07/31 09:54:44;;;;;;;7.45;2.38;;;;;;;14.05;100.00;100217.75;4894541;29;20184;-68
2023/07/31 09:57:11;;;;;;;4.93;2.17;;;;;;;14.10;100.00;100217.16;4894100;29;20501;-68
2023/07/31 09:59:39;;;;;;;3.90;2.17;;;;;;;13.99;100.00;100215.84;4894541;29;20118;-68
2023/07/31 10:02:14;;;;;;;3.42;2.10;;;;;;;14.11;100.00;100213.44;4894869;29;20112;-68
2023/07/31 10:04:43;;;;;;;5.85;2.33;;;;;;;14.13;100.00;100210.56;4894389;29;20193;-69
2023/07/31 10:07:17;;;;;;;11.68;2.83;;;;;;;14.13;100.00;100215.94;4878017;29;20058;-68
2023/07/31 10:09:45;;;;;;;6.07;3.35;;;;;;;14.37;100.00;100214.66;4894467;29;20474;-68
2023/07/31 10:12:14;;;;;;;5.53;2.80;;;;;;;14.57;100.00;100212.94;4877722;29;20494;-68
2023/07/31 10:14:42;;;;;;;7.47;2.92;;;;;;;14.50;100.00;100210.19;4893693;29;20100;-67
2023/07/31 10:17:10;;;;;;;8.93;3.47;;;;;;;14.42;100.00;100209.50;4895084;29;20476;-68
2023/07/31 10:19:39;;;;;;;7.63;3.78;;;;;;;14.40;100.00;100200.78;4894907;29;20056;-68
2023/07/31 10:22:06;;;;;;;8.45;4.30;;;;;;;14.39;100.00;100209.88;4894952;29;20521;-68
2023/07/31 10:24:34;;;;;;;7.70;3.58;;;;;;;14.28;100.00;100201.31;4894863;29;20056;-69
2023/07/31 10:27:02;;;;;;;8.65;3.45;;;;;;;14.40;100.00;100192.69;4894616;29;20469;-67
2023/07/31 10:29:29;;;;;;;8.10;4.15;;;;;;;14.44;100.00;100185.84;4893474;29;20064;-68
2023/07/31 10:31:58;;;;;;;10.13;3.38;;;;;;;14.68;100.00;100190.75;4892805;29;20119;-68
2023/07/31 10:34:26;;;;;;;8.68;3.80;;;;;;;14.72;100.00;100194.75;4894141;29;20446;-68
2023/07/31 10:37:26;;;;;;;14.10;6.50;;;;;;;14.83;100.00;100198.75;4893426;29;20418;-68
2023/07/31 10:40:05;;;;;;;9.75;4.22;;;;;;;15.20;100.00;100189.31;4893763;29;20055;-67
2023/07/31 10:42:32;;;;;;;9.90;4.05;;;;;;;16.36;100.00;100188.16;4892726;29;20131;-68
2023/07/31 10:45:04;;;;;;;9.98;3.45;;;;;;;17.13;100.00;100190.00;4894188;29;20048;-68
2023/07/31 10:47:38;;;;;;;11.05;3.20;;;;;;;17.67;100.00;100193.22;4885893;29;20053;-69
2023/07/31 10:50:18;;;;;;;9.35;3.92;;;;;;;18.95;100.00;100178.22;4874883;29;20140;-69
2023/07/31 10:52:55;;;;;;;7.15;3.38;;;;;;;19.07;100.00;100170.13;4875542;29;20103;-69
2023/07/31 10:55:40;;;;;;;8.45;3.08;;;;;;;19.60;100.00;100158.47;4874200;29;20101;-68
2023/07/31 10:58:09;;;;;;;10.05;3.05;;;;;;;19.81;100.00;100157.13;4874783;29;20565;-68
2023/07/31 11:00:43;;;;;;;8.90;2.88;;;;;;;20.32;100.00;100155.59;4875337;29;20053;-68
2023/07/31 11:03:17;;;;;;;7.85;2.60;;;;;;;21.09;100.00;100158.84;4891300;29;20488;-68
2023/07/31 11:06:03;;;;;;;11.32;2.95;;;;;;;20.67;100.00;100161.00;4892837;29;20080;-68
2023/07/31 11:08:32;;;;;;;6.28;2.95;;;;;;;19.88;100.00;100150.50;4893024;29;20485;-68
2023/07/31 11:11:02;;;;;;;6.55;3.03;;;;;;;19.15;100.00;100159.75;4893593;29;20057;-69
2023/07/31 11:13:30;;;;;;;7.32;2.97;;;;;;;18.81;100.00;100158.50;4894123;29;20446;-68
2023/07/31 11:15:57;;;;;;;6.60;3.25;;;;;;;18.43;100.00;100143.28;4894341;29;20096;-69
2023/07/31 11:18:25;;;;;;;5.80;2.80;;;;;;;18.28;100.00;100148.28;4885163;29;20048;-68
2023/07/31 11:20:52;;;;;;;11.75;3.30;;;;;;;18.42;100.00;100152.50;4893271;29;20051;-68
2023/07/31 11:23:20;;;;;;;9.60;3.78;;;;;;;18.37;100.00;100151.50;4893275;29;20187;-70